Time;durP1;ratioP1;P1;durP2;ratioP2;P2;SDS_P1;SDS_P2;PMS_P1;PMS_P2;Temp;Humidity;BMP_temperature;BMP_pressure;BME280_temperature;BME280_humidity;BME280_pressure;Samples;Min_cycle;Max_cycle;Signal;HPM_P1;HPM_P2
2022/10/08 00:02:22;;;;;;;;;;;20.70;52.90;;;;;;5066252;28;19924;-73
2022/10/08 00:04:47;;;;;;;;;;;20.70;53.00;;;;;;5031090;28;19978;-73
2022/10/08 00:07:12;;;;;;;;;;;20.70;53.20;;;;;;5010802;28;20006;-74
2022/10/08 00:09:38;;;;;;;;;;;20.60;53.30;;;;;;5028257;28;19967;-74
2022/10/08 00:12:03;;;;;;;;;;;20.60;53.20;;;;;;5028864;28;19919;-74
2022/10/08 00:14:29;;;;;;;;;;;20.70;53.30;;;;;;5033672;28;19913;-74
2022/10/08 00:16:54;;;;;;;;;;;20.60;53.30;;;;;;5026935;28;20311;-73
2022/10/08 00:19:20;;;;;;;;;;;20.60;53.30;;;;;;5011071;28;19921;-73
2022/10/08 00:21:45;;;;;;;;;;;20.60;53.40;;;;;;5008631;28;19923;-74
2022/10/08 00:24:15;;;;;;;;;;;20.50;53.30;;;;;;5011011;28;19928;-73
2022/10/08 00:26:40;;;;;;;;;;;20.50;53.40;;;;;;5026435;28;19917;-72
2022/10/08 00:29:06;;;;;;;;;;;20.50;53.40;;;;;;5044880;28;19916;-73
2022/10/08 00:31:33;;;;;;;;;;;20.50;53.40;;;;;;5010225;28;19971;-73
2022/10/08 00:34:00;;;;;;;;;;;20.50;53.40;;;;;;5028898;28;20371;-74
2022/10/08 00:36:26;;;;;;;;;;;20.50;53.50;;;;;;5015893;28;19931;-74
2022/10/08 00:38:55;;;;;;;;;;;20.50;53.50;;;;;;5044998;28;19917;-73
2022/10/08 00:41:21;;;;;;;;;;;20.40;53.40;;;;;;5046110;28;20368;-73
2022/10/08 00:43:47;;;;;;;;;;;20.40;53.50;;;;;;5010218;28;19921;-74
2022/10/08 00:46:32;;;;;;;;;;;20.40;53.40;;;;;;5029108;28;19917;-74
2022/10/08 00:48:59;;;;;;;;;;;20.40;53.40;;;;;;5045051;28;20383;-73
2022/10/08 00:51:24;;;;;;;;;;;20.50;53.40;;;;;;5028218;28;20362;-73
2022/10/08 00:53:50;;;;;;;;;;;20.40;53.30;;;;;;5028972;28;20008;-73
2022/10/08 00:56:16;;;;;;;;;;;20.40;53.20;;;;;;5045010;28;19974;-74
2022/10/08 00:58:41;;;;;;;;;;;20.40;53.20;;;;;;5026803;28;19924;-74
2022/10/08 01:01:07;;;;;;;;;;;20.40;53.20;;;;;;5025169;28;19914;-73
2022/10/08 01:03:32;;;;;;;;;;;20.40;53.10;;;;;;5003446;28;19952;-74
2022/10/08 01:06:01;;;;;;;;;;;20.40;53.20;;;;;;5019595;28;19937;-73
2022/10/08 01:08:45;;;;;;;;;;;20.40;53.20;;;;;;5016795;28;20326;-73
2022/10/08 01:11:16;;;;;;;;;;;20.40;53.20;;;;;;5014888;28;19920;-73
2022/10/08 01:13:42;;;;;;;;;;;20.40;53.20;;;;;;5012019;28;20427;-73
2022/10/08 01:16:07;;;;;;;;;;;20.40;53.20;;;;;;5011835;28;19910;-73
2022/10/08 01:18:53;;;;;;;;;;;20.40;53.30;;;;;;5025928;28;19920;-74
2022/10/08 01:21:21;;;;;;;;;;;20.50;53.20;;;;;;5001173;28;20315;-73
2022/10/08 01:23:54;;;;;;;;;;;20.60;52.90;;;;;;5017008;28;19917;-74
2022/10/08 01:26:28;;;;;;;;;;;20.70;52.60;;;;;;5000923;28;19965;-74
2022/10/08 01:28:55;;;;;;;;;;;20.80;52.40;;;;;;5019675;28;19923;-73
2022/10/08 01:31:26;;;;;;;;;;;20.90;52.20;;;;;;5017154;28;19922;-74
2022/10/08 01:34:07;;;;;;;;;;;21.00;52.10;;;;;;5017205;28;19956;-74
2022/10/08 01:36:50;;;;;;;;;;;21.10;51.90;;;;;;5016033;28;20018;-73
2022/10/08 01:39:17;;;;;;;;;;;21.20;51.60;;;;;;5015682;28;19913;-74
2022/10/08 01:41:42;;;;;;;;;;;21.30;51.40;;;;;;5018072;28;19969;-74
2022/10/08 01:44:16;;;;;;;;;;;21.40;51.10;;;;;;5033346;28;19986;-74
2022/10/08 01:46:42;;;;;;;;;;;21.50;51.00;;;;;;4979988;28;20013;-73
2022/10/08 01:49:09;;;;;;;;;;;21.60;50.90;;;;;;5015260;28;19920;-74
2022/10/08 01:51:35;;;;;;;;;;;21.60;50.70;;;;;;5015773;28;19917;-74
2022/10/08 01:54:02;;;;;;;;;;;21.60;50.60;;;;;;5018412;28;19917;-73
2022/10/08 01:56:27;;;;;;;;;;;21.70;50.70;;;;;;5006416;28;19917;-73
2022/10/08 01:59:04;;;;;;;;;;;21.60;50.50;;;;;;5002205;28;20008;-73
2022/10/08 02:01:33;;;;;;;;;;;21.60;50.60;;;;;;5017856;28;20249;-74
2022/10/08 02:06:43;;;;;;;;;;;21.60;50.60;;;;;;5033229;28;19936;-74
2022/10/08 02:09:09;;;;;;;;;;;21.60;50.60;;;;;;5013379;28;19921;-74
2022/10/08 02:11:34;;;;;;;;;;;21.60;50.50;;;;;;5012015;28;20030;-74
2022/10/08 02:14:00;;;;;;;;;;;21.70;50.50;;;;;;5028821;28;19936;-73
2022/10/08 02:16:26;;;;;;;;;;;21.70;50.40;;;;;;5013068;28;19923;-74
2022/10/08 02:18:58;;;;;;;;;;;21.70;50.30;;;;;;5027543;28;20050;-74
2022/10/08 02:21:23;;;;;;;;;;;21.80;50.20;;;;;;5047745;28;19924;-74
2022/10/08 02:23:51;;;;;;;;;;;21.80;50.20;;;;;;5027892;28;19916;-74
2022/10/08 02:26:18;;;;;;;;;;;21.80;50.00;;;;;;5026829;28;19917;-73
2022/10/08 02:28:45;;;;;;;;;;;21.80;50.10;;;;;;5046072;28;19966;-73
2022/10/08 02:31:17;;;;;;;;;;;21.90;50.00;;;;;;5012541;28;20028;-73
2022/10/08 02:33:45;;;;;;;;;;;21.90;50.00;;;;;;5034256;28;19987;-74
2022/10/08 02:36:11;;;;;;;;;;;21.90;50.00;;;;;;5034530;28;19924;-74
2022/10/08 02:38:42;;;;;;;;;;;21.90;50.10;;;;;;5033625;28;19946;-74
2022/10/08 02:41:07;;;;;;;;;;;21.90;50.10;;;;;;5029898;28;19923;-74
2022/10/08 02:43:33;;;;;;;;;;;21.80;50.10;;;;;;5027030;28;20368;-73
2022/10/08 02:46:00;;;;;;;;;;;21.80;50.20;;;;;;5028226;28;20360;-74
2022/10/08 02:48:27;;;;;;;;;;;21.80;50.30;;;;;;5016166;28;20428;-74
2022/10/08 02:50:53;;;;;;;;;;;21.70;50.30;;;;;;5028695;28;19921;-73
2022/10/08 02:53:18;;;;;;;;;;;21.70;50.30;;;;;;5029917;28;19913;-74
2022/10/08 02:55:59;;;;;;;;;;;21.70;50.30;;;;;;5015916;28;19913;-74
2022/10/08 02:58:25;;;;;;;;;;;21.70;50.30;;;;;;5052431;28;20410;-74
2022/10/08 03:00:55;;;;;;;;;;;21.70;50.40;;;;;;5029279;28;19948;-73
2022/10/08 03:03:22;;;;;;;;;;;21.70;50.50;;;;;;5028677;28;19920;-74
2022/10/08 03:05:48;;;;;;;;;;;21.60;50.60;;;;;;5044796;28;19947;-73
2022/10/08 03:08:13;;;;;;;;;;;21.60;50.60;;;;;;5029920;28;19928;-74
2022/10/08 03:10:39;;;;;;;;;;;21.70;50.80;;;;;;5011080;28;20050;-73
2022/10/08 03:13:04;;;;;;;;;;;21.70;50.80;;;;;;5028306;28;20310;-74
2022/10/08 03:15:30;;;;;;;;;;;21.70;50.80;;;;;;5028550;28;19967;-74
2022/10/08 03:17:55;;;;;;;;;;;21.60;50.70;;;;;;5029017;28;20411;-73
2022/10/08 03:20:22;;;;;;;;;;;21.70;50.80;;;;;;5027752;28;19927;-74
2022/10/08 03:22:47;;;;;;;;;;;21.70;50.70;;;;;;5026971;28;20016;-73
2022/10/08 03:25:13;;;;;;;;;;;21.70;50.70;;;;;;5046936;28;20038;-73
2022/10/08 03:27:38;;;;;;;;;;;21.60;50.60;;;;;;5011064;28;19967;-73
2022/10/08 03:30:04;;;;;;;;;;;21.60;50.60;;;;;;5044698;28;20343;-73
2022/10/08 03:32:29;;;;;;;;;;;21.70;50.70;;;;;;5028668;28;19927;-73
2022/10/08 03:34:55;;;;;;;;;;;21.70;50.60;;;;;;5011320;28;19917;-74
2022/10/08 03:37:20;;;;;;;;;;;21.70;50.30;;;;;;5028851;28;19982;-73
2022/10/08 03:39:45;;;;;;;;;;;21.70;50.40;;;;;;5012506;28;19913;-73
2022/10/08 03:42:11;;;;;;;;;;;21.70;50.50;;;;;;5044796;28;19921;-73
2022/10/08 03:44:36;;;;;;;;;;;21.60;50.40;;;;;;5046008;28;19925;-73
2022/10/08 03:47:02;;;;;;;;;;;21.60;50.50;;;;;;5028660;28;19917;-73
2022/10/08 03:49:27;;;;;;;;;;;21.70;50.50;;;;;;5028004;28;20403;-73
2022/10/08 03:51:53;;;;;;;;;;;21.70;50.50;;;;;;5046247;28;20291;-73
2022/10/08 03:54:18;;;;;;;;;;;21.70;50.40;;;;;;5028602;28;19912;-73
2022/10/08 03:56:44;;;;;;;;;;;21.70;50.30;;;;;;5026593;28;19913;-74
2022/10/08 03:59:09;;;;;;;;;;;21.80;50.30;;;;;;5030826;28;19913;-73
2022/10/08 04:01:35;;;;;;;;;;;21.80;50.90;;;;;;5045713;28;19924;-74
2022/10/08 04:04:00;;;;;;;;;;;21.80;50.20;;;;;;5045493;28;19913;-74
2022/10/08 04:06:26;;;;;;;;;;;21.80;50.30;;;;;;5011629;28;19925;-73
2022/10/08 04:08:52;;;;;;;;;;;21.70;50.30;;;;;;5027883;28;20003;-73
2022/10/08 04:11:18;;;;;;;;;;;21.70;50.30;;;;;;5046251;28;19955;-73
2022/10/08 04:13:43;;;;;;;;;;;21.70;50.30;;;;;;5028405;28;19956;-73
2022/10/08 04:16:17;;;;;;;;;;;21.70;50.20;;;;;;5010801;28;19913;-74
2022/10/08 04:18:42;;;;;;;;;;;21.80;50.30;;;;;;5026532;28;20338;-73
2022/10/08 04:21:08;;;;;;;;;;;21.80;50.40;;;;;;5045496;28;20019;-73
2022/10/08 04:23:34;;;;;;;;;;;21.80;50.30;;;;;;5044640;28;19913;-74
2022/10/08 04:26:00;;;;;;;;;;;21.80;50.30;;;;;;5027361;28;19982;-73
2022/10/08 04:28:26;;;;;;;;;;;21.80;50.30;;;;;;5027635;28;19958;-73
2022/10/08 04:30:58;;;;;;;;;;;21.80;50.40;;;;;;5028737;28;19920;-73
2022/10/08 04:33:24;;;;;;;;;;;21.70;50.40;;;;;;5028518;28;20002;-74
2022/10/08 04:35:49;;;;;;;;;;;21.70;50.50;;;;;;5034623;28;19999;-74
2022/10/08 04:38:14;;;;;;;;;;;21.70;50.50;;;;;;5028269;28;19923;-73
2022/10/08 04:40:40;;;;;;;;;;;21.70;50.50;;;;;;5028354;28;19965;-73
2022/10/08 04:43:05;;;;;;;;;;;21.70;50.50;;;;;;5044892;28;19916;-73
2022/10/08 04:45:31;;;;;;;;;;;21.70;50.50;;;;;;5030376;28;19913;-73
2022/10/08 04:47:56;;;;;;;;;;;21.70;50.40;;;;;;5027346;28;20269;-73
2022/10/08 04:50:22;;;;;;;;;;;21.70;50.50;;;;;;5026039;28;19963;-74
2022/10/08 04:52:47;;;;;;;;;;;21.70;50.30;;;;;;5026731;28;19913;-73
2022/10/08 04:55:13;;;;;;;;;;;21.70;50.30;;;;;;5028153;28;20559;-73
2022/10/08 04:57:38;;;;;;;;;;;21.70;50.40;;;;;;5047455;28;19923;-74
2022/10/08 05:00:04;;;;;;;;;;;21.70;50.40;;;;;;5029671;28;20264;-73
2022/10/08 05:02:29;;;;;;;;;;;21.70;50.40;;;;;;5006215;28;20343;-74
2022/10/08 05:04:55;;;;;;;;;;;21.80;50.50;;;;;;5048549;28;19920;-74
2022/10/08 05:07:20;;;;;;;;;;;21.80;50.40;;;;;;5034245;28;19909;-73
2022/10/08 05:09:46;;;;;;;;;;;21.80;51.10;;;;;;5034248;28;19932;-74
2022/10/08 05:12:11;;;;;;;;;;;21.80;50.30;;;;;;5034180;28;19995;-74
2022/10/08 05:14:36;;;;;;;;;;;21.80;50.30;;;;;;5033773;28;19970;-74
2022/10/08 05:17:02;;;;;;;;;;;21.90;50.30;;;;;;5027615;28;19913;-73
2022/10/08 05:19:27;;;;;;;;;;;21.90;50.30;;;;;;5045383;28;20067;-73
2022/10/08 05:21:53;;;;;;;;;;;21.90;50.30;;;;;;5010566;28;19917;-74
2022/10/08 05:24:18;;;;;;;;;;;21.90;50.20;;;;;;5025218;28;19912;-73
2022/10/08 05:26:44;;;;;;;;;;;21.90;50.30;;;;;;5027889;28;19925;-73
2022/10/08 05:29:09;;;;;;;;;;;22.00;50.30;;;;;;5042978;28;20356;-74
2022/10/08 05:31:35;;;;;;;;;;;22.00;50.30;;;;;;5027056;28;19966;-73
2022/10/08 05:34:00;;;;;;;;;;;22.00;50.20;;;;;;5010434;28;19912;-74
2022/10/08 05:36:27;;;;;;;;;;;21.90;50.10;;;;;;5044559;28;19913;-73
2022/10/08 05:38:52;;;;;;;;;;;22.00;50.30;;;;;;5029371;28;19928;-73
2022/10/08 05:41:19;;;;;;;;;;;21.90;50.40;;;;;;5013964;28;19913;-73
2022/10/08 05:43:44;;;;;;;;;;;21.90;50.40;;;;;;5030792;28;20363;-74
2022/10/08 05:46:10;;;;;;;;;;;21.90;50.40;;;;;;5013991;28;19928;-74
2022/10/08 05:48:35;;;;;;;;;;;21.90;50.40;;;;;;5028318;28;19923;-73
2022/10/08 05:51:04;;;;;;;;;;;21.80;50.30;;;;;;5013201;28;20410;-74
2022/10/08 05:53:30;;;;;;;;;;;21.80;50.30;;;;;;5047475;28;19931;-73
2022/10/08 05:56:02;;;;;;;;;;;21.80;50.40;;;;;;5046608;28;19921;-73
2022/10/08 05:58:27;;;;;;;;;;;21.70;50.50;;;;;;5047978;28;20070;-73
2022/10/08 06:00:56;;;;;;;;;;;21.70;50.70;;;;;;5048249;28;19952;-73
2022/10/08 06:03:22;;;;;;;;;;;21.60;50.80;;;;;;5029847;28;19920;-74
2022/10/08 06:05:47;;;;;;;;;;;21.60;50.80;;;;;;5022365;28;19928;-74
2022/10/08 06:08:13;;;;;;;;;;;21.50;50.90;;;;;;5022331;28;19952;-74
2022/10/08 06:10:46;;;;;;;;;;;21.50;51.00;;;;;;5018197;28;19913;-73
2022/10/08 06:13:13;;;;;;;;;;;21.50;51.20;;;;;;5019705;28;20412;-74
2022/10/08 06:15:38;;;;;;;;;;;21.40;51.30;;;;;;5016137;28;19917;-73
2022/10/08 06:18:04;;;;;;;;;;;21.30;51.40;;;;;;5003564;28;19922;-73
2022/10/08 06:20:29;;;;;;;;;;;21.30;51.50;;;;;;5020436;28;19917;-73
2022/10/08 06:22:54;;;;;;;;;;;21.30;51.50;;;;;;5019117;28;19925;-73
2022/10/08 06:25:20;;;;;;;;;;;21.30;51.60;;;;;;5017640;28;19913;-74
2022/10/08 06:27:45;;;;;;;;;;;21.20;51.70;;;;;;5020046;28;19925;-73
2022/10/08 06:30:11;;;;;;;;;;;21.20;51.70;;;;;;4994896;28;19914;-74
2022/10/08 06:32:36;;;;;;;;;;;21.20;52.40;;;;;;5018749;28;19926;-73
2022/10/08 06:35:02;;;;;;;;;;;21.10;51.80;;;;;;5012064;28;19975;-74
2022/10/08 06:37:27;;;;;;;;;;;21.10;51.90;;;;;;5027055;28;19918;-74
2022/10/08 06:39:53;;;;;;;;;;;21.10;51.90;;;;;;5019136;28;19913;-73
2022/10/08 06:42:18;;;;;;;;;;;21.00;52.00;;;;;;5020402;28;19917;-73
2022/10/08 06:44:44;;;;;;;;;;;21.00;52.10;;;;;;5017586;28;19970;-73
2022/10/08 06:47:09;;;;;;;;;;;21.00;52.20;;;;;;5015401;28;19920;-73
2022/10/08 06:49:35;;;;;;;;;;;21.00;52.30;;;;;;5005057;28;19920;-73
2022/10/08 06:52:00;;;;;;;;;;;21.00;52.50;;;;;;5021197;28;19924;-74
2022/10/08 06:54:26;;;;;;;;;;;20.90;52.30;;;;;;5015739;28;19925;-73
2022/10/08 06:56:51;;;;;;;;;;;20.90;52.50;;;;;;5022237;28;19971;-73
2022/10/08 06:59:17;;;;;;;;;;;20.80;52.50;;;;;;5018312;28;20067;-74
2022/10/08 07:01:42;;;;;;;;;;;20.80;52.60;;;;;;5014124;28;19971;-73
2022/10/08 07:04:09;;;;;;;;;;;20.80;52.70;;;;;;5020959;28;19913;-73
2022/10/08 07:06:34;;;;;;;;;;;20.80;52.70;;;;;;5028821;28;19924;-73
2022/10/08 07:09:00;;;;;;;;;;;20.80;52.80;;;;;;5029497;28;19919;-73
2022/10/08 07:11:25;;;;;;;;;;;20.80;52.80;;;;;;5030938;28;19935;-73
2022/10/08 07:13:51;;;;;;;;;;;20.80;52.80;;;;;;5045461;28;19913;-73
2022/10/08 07:16:17;;;;;;;;;;;20.70;52.80;;;;;;5028954;28;19917;-73
2022/10/08 07:18:43;;;;;;;;;;;20.70;52.90;;;;;;5027738;28;20063;-73
2022/10/08 07:21:10;;;;;;;;;;;20.70;52.90;;;;;;5030153;28;19921;-73
2022/10/08 07:23:35;;;;;;;;;;;20.70;52.90;;;;;;5025446;28;19920;-73
2022/10/08 07:26:02;;;;;;;;;;;20.70;52.90;;;;;;5014855;28;20384;-73
2022/10/08 07:28:28;;;;;;;;;;;20.70;52.90;;;;;;5026262;28;19917;-74
2022/10/08 07:30:53;;;;;;;;;;;20.70;52.90;;;;;;5031390;28;20531;-73
2022/10/08 07:33:19;;;;;;;;;;;20.80;52.90;;;;;;5030260;28;19920;-74
2022/10/08 07:35:45;;;;;;;;;;;20.80;52.80;;;;;;5050677;28;19921;-73
2022/10/08 07:38:10;;;;;;;;;;;20.90;52.70;;;;;;5046291;28;19919;-73
2022/10/08 07:40:35;;;;;;;;;;;20.90;52.60;;;;;;5045553;28;19920;-73
2022/10/08 07:43:01;;;;;;;;;;;20.90;52.50;;;;;;5030970;28;20011;-73
2022/10/08 07:45:27;;;;;;;;;;;20.90;52.50;;;;;;5042202;28;20280;-73
2022/10/08 07:47:52;;;;;;;;;;;21.00;52.60;;;;;;5031453;28;19917;-73
2022/10/08 07:50:18;;;;;;;;;;;21.00;52.60;;;;;;5026662;28;20380;-73
2022/10/08 07:52:43;;;;;;;;;;;21.00;52.70;;;;;;5034250;28;19920;-73
2022/10/08 07:55:09;;;;;;;;;;;20.90;52.70;;;;;;5019255;28;19931;-74
2022/10/08 07:57:34;;;;;;;;;;;20.90;52.80;;;;;;5035165;28;20367;-74
2022/10/08 07:59:59;;;;;;;;;;;20.90;52.70;;;;;;5016609;28;19991;-73
2022/10/08 08:02:25;;;;;;;;;;;21.00;52.80;;;;;;5043489;28;19967;-74
2022/10/08 08:04:50;;;;;;;;;;;21.00;52.80;;;;;;5031546;28;19983;-73
2022/10/08 08:07:16;;;;;;;;;;;21.00;52.80;;;;;;5011526;28;19920;-74
2022/10/08 08:09:41;;;;;;;;;;;21.00;52.80;;;;;;5012492;28;19939;-73
2022/10/08 08:12:07;;;;;;;;;;;21.00;52.90;;;;;;5010514;28;19920;-73
2022/10/08 08:14:32;;;;;;;;;;;21.00;52.90;;;;;;5006530;28;19921;-73
2022/10/08 08:16:57;;;;;;;;;;;21.00;52.80;;;;;;5005059;28;19924;-73
2022/10/08 08:19:23;;;;;;;;;;;21.00;52.80;;;;;;5005714;28;19920;-74
2022/10/08 08:21:48;;;;;;;;;;;21.00;53.00;;;;;;5018778;28;20275;-74
2022/10/08 08:24:15;;;;;;;;;;;21.00;53.10;;;;;;5006126;28;19913;-73
2022/10/08 08:26:41;;;;;;;;;;;21.00;53.20;;;;;;5018411;28;19914;-74
2022/10/08 08:29:07;;;;;;;;;;;20.90;53.10;;;;;;5004690;28;19932;-74
2022/10/08 08:31:33;;;;;;;;;;;20.90;53.20;;;;;;4997349;28;19923;-74
2022/10/08 08:34:04;;;;;;;;;;;20.90;53.20;;;;;;5009596;28;20004;-74
2022/10/08 08:36:31;;;;;;;;;;;20.90;53.20;;;;;;5011531;28;19909;-74
2022/10/08 08:38:57;;;;;;;;;;;20.90;53.30;;;;;;4993650;28;19917;-73
2022/10/08 08:41:31;;;;;;;;;;;20.90;53.30;;;;;;5004307;28;19928;-74
2022/10/08 08:43:58;;;;;;;;;;;20.90;53.40;;;;;;5005168;28;20000;-74
2022/10/08 08:46:23;;;;;;;;;;;20.90;53.50;;;;;;5006078;28;19953;-73
2022/10/08 08:48:48;;;;;;;;;;;20.90;53.50;;;;;;5007404;28;20380;-73
2022/10/08 08:51:14;;;;;;;;;;;20.90;53.50;;;;;;5020260;28;20357;-74
2022/10/08 08:53:39;;;;;;;;;;;20.80;53.40;;;;;;5007448;28;20318;-73
2022/10/08 08:56:05;;;;;;;;;;;20.80;53.50;;;;;;5009422;28;19921;-74
2022/10/08 08:58:41;;;;;;;;;;;20.80;53.50;;;;;;5006054;28;19920;-74
2022/10/08 09:01:09;;;;;;;;;;;20.80;53.50;;;;;;5011514;28;19917;-74
2022/10/08 09:03:39;;;;;;;;;;;20.80;53.60;;;;;;5010750;28;19913;-74
2022/10/08 09:06:08;;;;;;;;;;;20.90;53.60;;;;;;5013200;28;19943;-74
2022/10/08 09:08:35;;;;;;;;;;;20.90;53.60;;;;;;5010880;28;19914;-74
2022/10/08 09:11:01;;;;;;;;;;;20.90;53.50;;;;;;5023137;28;19983;-75
2022/10/08 09:13:56;;;;;;;;;;;20.90;53.60;;;;;;5031081;28;19924;-74
2022/10/08 09:16:22;;;;;;;;;;;20.90;53.50;;;;;;5019373;28;19932;-74
2022/10/08 09:18:48;;;;;;;;;;;21.00;53.30;;;;;;5030393;28;20292;-74
2022/10/08 09:21:14;;;;;;;;;;;21.10;53.30;;;;;;5031707;28;19917;-74
2022/10/08 09:23:39;;;;;;;;;;;21.20;53.20;;;;;;5030094;28;19983;-74
2022/10/08 09:26:23;;;;;;;;;;;21.30;53.00;;;;;;5038651;28;20000;-73
2022/10/08 09:28:50;;;;;;;;;;;21.50;53.10;;;;;;5032580;28;19972;-73
2022/10/08 09:31:20;;;;;;;;;;;21.50;53.10;;;;;;5029028;28;19921;-74
2022/10/08 09:33:52;;;;;;;;;;;21.60;53.30;;;;;;5035291;28;19920;-74
2022/10/08 09:36:34;;;;;;;;;;;21.60;53.00;;;;;;5034393;28;19923;-75
2022/10/08 09:39:00;;;;;;;;;;;21.60;52.70;;;;;;5030346;28;20007;-74
2022/10/08 09:41:27;;;;;;;;;;;21.70;52.80;;;;;;5033882;28;19967;-74
2022/10/08 09:44:11;;;;;;;;;;;21.80;52.80;;;;;;5028765;28;20305;-73
2022/10/08 09:46:36;;;;;;;;;;;21.80;52.70;;;;;;5026147;28;19913;-73
2022/10/08 09:49:18;;;;;;;;;;;21.90;52.80;;;;;;5033579;28;19932;-73
2022/10/08 09:51:44;;;;;;;;;;;22.00;52.70;;;;;;5033350;28;19913;-73
2022/10/08 09:54:09;;;;;;;;;;;22.10;52.70;;;;;;5026505;28;20335;-74
2022/10/08 09:56:35;;;;;;;;;;;22.10;52.70;;;;;;5025375;28;19909;-73
2022/10/08 09:59:01;;;;;;;;;;;22.10;52.60;;;;;;5014167;28;19914;-73
2022/10/08 10:01:26;;;;;;;;;;;22.10;52.50;;;;;;5015778;28;20471;-73
2022/10/08 10:03:53;;;;;;;;;;;22.10;52.50;;;;;;5032253;28;20354;-73
2022/10/08 10:06:25;;;;;;;;;;;22.10;52.70;;;;;;5014206;28;19928;-73
2022/10/08 10:08:55;;;;;;;;;;;22.10;52.80;;;;;;5013781;28;19940;-73
2022/10/08 10:11:37;;;;;;;;;;;22.10;52.70;;;;;;5015751;28;19948;-73
2022/10/08 10:14:15;;;;;;;;;;;22.10;52.70;;;;;;5022420;28;20031;-73
2022/10/08 10:16:41;;;;;;;;;;;22.10;52.50;;;;;;5012352;28;19920;-73
2022/10/08 10:19:14;;;;;;;;;;;22.10;52.50;;;;;;5014256;28;19913;-73
2022/10/08 10:21:41;;;;;;;;;;;22.10;52.50;;;;;;5028166;28;19917;-73
2022/10/08 10:24:16;;;;;;;;;;;22.00;52.70;;;;;;5015349;28;20701;-73
2022/10/08 10:26:42;;;;;;;;;;;21.90;52.90;;;;;;5045398;28;19914;-73
2022/10/08 10:29:09;;;;;;;;;;;21.80;52.90;;;;;;5017454;28;19921;-74
2022/10/08 10:31:39;;;;;;;;;;;21.80;52.80;;;;;;5018602;28;19913;-73
2022/10/08 10:34:07;;;;;;;;;;;21.80;52.80;;;;;;5042817;28;19913;-74
2022/10/08 10:36:33;;;;;;;;;;;21.80;52.90;;;;;;5042587;28;20016;-74
2022/10/08 10:39:05;;;;;;;;;;;21.80;53.00;;;;;;5023880;28;20002;-74
2022/10/08 10:41:31;;;;;;;;;;;21.80;52.90;;;;;;5018703;28;19913;-73
2022/10/08 10:43:59;;;;;;;;;;;21.80;52.80;;;;;;5045727;28;19917;-74
2022/10/08 10:46:43;;;;;;;;;;;21.90;52.80;;;;;;5011319;28;20040;-74
2022/10/08 10:49:16;;;;;;;;;;;21.90;52.70;;;;;;5013600;28;20296;-74
2022/10/08 10:51:49;;;;;;;;;;;22.00;52.50;;;;;;5012750;28;19920;-73
2022/10/08 10:54:14;;;;;;;;;;;22.00;52.30;;;;;;5013427;28;19949;-73
2022/10/08 10:56:43;;;;;;;;;;;22.00;52.10;;;;;;5012927;28;20015;-73
2022/10/08 10:59:28;;;;;;;;;;;22.00;52.00;;;;;;5012335;28;19914;-73
2022/10/08 11:02:02;;;;;;;;;;;22.00;51.90;;;;;;5009490;28;19975;-74
2022/10/08 11:04:27;;;;;;;;;;;22.00;51.90;;;;;;5015175;28;20419;-74
2022/10/08 11:07:04;;;;;;;;;;;22.00;51.80;;;;;;5031453;28;19917;-74
2022/10/08 11:09:43;;;;;;;;;;;22.00;51.80;;;;;;5020801;28;19913;-73
2022/10/08 11:12:20;;;;;;;;;;;22.00;51.70;;;;;;5024707;28;19913;-73
2022/10/08 11:14:49;;;;;;;;;;;22.00;51.60;;;;;;5013158;28;21123;-73
2022/10/08 11:17:33;;;;;;;;;;;22.00;51.40;;;;;;5008805;28;19921;-74
2022/10/08 11:20:17;;;;;;;;;;;22.00;51.40;;;;;;5031229;28;20373;-74
2022/10/08 11:22:44;;;;;;;;;;;22.00;51.40;;;;;;5031496;28;19920;-74
2022/10/08 11:25:13;;;;;;;;;;;22.00;51.40;;;;;;5031771;28;19919;-74
2022/10/08 11:27:41;;;;;;;;;;;22.00;51.50;;;;;;5028845;28;19977;-73
2022/10/08 11:30:14;;;;;;;;;;;21.90;51.50;;;;;;5033631;28;19929;-74
2022/10/08 11:32:43;;;;;;;;;;;21.80;51.60;;;;;;5031078;28;19909;-73
2022/10/08 11:35:23;;;;;;;;;;;21.80;51.70;;;;;;5031473;28;19920;-73
2022/10/08 11:37:50;;;;;;;;;;;21.80;52.50;;;;;;5031330;28;20347;-74
2022/10/08 11:40:19;;;;;;;;;;;21.70;51.90;;;;;;5033560;28;19964;-74
2022/10/08 11:43:00;;;;;;;;;;;21.70;51.90;;;;;;5029747;28;20380;-73
2022/10/08 11:45:30;;;;;;;;;;;21.80;52.00;;;;;;5031421;28;20004;-73
2022/10/08 11:47:57;;;;;;;;;;;21.80;52.00;;;;;;5032350;28;20442;-74
2022/10/08 11:50:25;;;;;;;;;;;21.70;52.50;;;;;;5015260;28;20371;-74
2022/10/08 11:52:51;;;;;;;;;;;21.70;51.80;;;;;;5031016;28;20288;-74
2022/10/08 11:55:19;;;;;;;;;;;21.80;51.90;;;;;;5031775;28;19913;-74
2022/10/08 11:57:51;;;;;;;;;;;21.70;51.90;;;;;;5014742;28;19917;-74
2022/10/08 12:00:29;;;;;;;;;;;21.70;51.90;;;;;;5031994;28;19913;-74
2022/10/08 12:02:55;;;;;;;;;;;21.80;52.10;;;;;;5032574;28;19953;-74
2022/10/08 12:05:20;;;;;;;;;;;21.70;52.10;;;;;;5044854;28;19927;-74
2022/10/08 12:07:52;;;;;;;;;;;21.70;52.20;;;;;;5052852;28;19916;-73
2022/10/08 12:10:18;;;;;;;;;;;21.70;52.20;;;;;;5043005;28;19959;-74
2022/10/08 12:12:49;;;;;;;;;;;21.70;52.30;;;;;;5051141;28;19952;-74
2022/10/08 12:15:24;;;;;;;;;;;21.70;52.40;;;;;;5053069;28;19908;-74
2022/10/08 12:17:59;;;;;;;;;;;21.70;52.50;;;;;;5052440;28;19932;-74
2022/10/08 12:20:28;;;;;;;;;;;21.70;52.40;;;;;;5035129;28;19915;-74
2022/10/08 12:23:09;;;;;;;;;;;21.70;52.40;;;;;;5034433;28;19916;-74
2022/10/08 12:25:36;;;;;;;;;;;21.80;52.50;;;;;;5034798;28;21278;-74
2022/10/08 12:28:17;;;;;;;;;;;21.80;52.40;;;;;;5051645;28;19913;-74
2022/10/08 12:30:46;;;;;;;;;;;21.90;52.40;;;;;;5052934;28;19919;-74
2022/10/08 12:33:11;;;;;;;;;;;21.90;52.30;;;;;;5052444;28;19909;-73
2022/10/08 12:35:39;;;;;;;;;;;22.00;52.40;;;;;;5034956;28;20414;-74
2022/10/08 12:38:23;;;;;;;;;;;22.00;52.30;;;;;;5034835;28;19912;-74
2022/10/08 12:40:48;;;;;;;;;;;22.00;52.20;;;;;;5049195;28;19909;-74
2022/10/08 12:43:16;;;;;;;;;;;22.00;52.20;;;;;;5041927;28;19912;-74
2022/10/08 12:46:01;;;;;;;;;;;22.10;52.30;;;;;;5052569;28;19909;-74
2022/10/08 12:48:32;;;;;;;;;;;22.10;52.30;;;;;;5048949;28;19913;-74
2022/10/08 12:51:00;;;;;;;;;;;22.10;52.20;;;;;;5063383;28;20287;-74
2022/10/08 12:53:26;;;;;;;;;;;22.00;52.10;;;;;;5052365;28;19909;-74
2022/10/08 12:55:52;;;;;;;;;;;22.00;52.10;;;;;;5052480;28;20338;-74
2022/10/08 12:58:19;;;;;;;;;;;22.00;52.10;;;;;;5034125;28;19909;-74
2022/10/08 13:00:48;;;;;;;;;;;22.00;52.10;;;;;;5035091;28;19913;-74
2022/10/08 13:03:14;;;;;;;;;;;22.00;52.10;;;;;;5051763;28;20494;-74
2022/10/08 13:05:40;;;;;;;;;;;22.00;52.10;;;;;;5013794;28;19956;-74
2022/10/08 13:08:29;;;;;;;;;;;22.00;52.10;;;;;;5034491;28;19920;-74
2022/10/08 13:10:55;;;;;;;;;;;22.00;52.10;;;;;;5026172;28;19958;-74
2022/10/08 13:13:39;;;;;;;;;;;22.00;52.10;;;;;;5036972;28;19909;-74
2022/10/08 13:16:36;;;;;;;;;;;22.00;52.20;;;;;;5052616;28;20376;-74
2022/10/08 13:19:02;;;;;;;;;;;22.00;52.10;;;;;;5008898;28;19913;-74
2022/10/08 13:21:30;;;;;;;;;;;21.90;52.10;;;;;;5033605;28;20297;-74
2022/10/08 13:23:56;;;;;;;;;;;21.90;52.20;;;;;;5051710;28;19938;-74
2022/10/08 13:26:37;;;;;;;;;;;21.90;52.20;;;;;;5034195;28;19908;-74
2022/10/08 13:29:17;;;;;;;;;;;21.90;52.30;;;;;;5051651;28;20387;-74
2022/10/08 13:31:43;;;;;;;;;;;21.90;52.20;;;;;;5050723;28;19956;-74
2022/10/08 13:34:13;;;;;;;;;;;21.90;52.30;;;;;;5043006;28;19955;-74
2022/10/08 13:36:38;;;;;;;;;;;21.80;52.30;;;;;;5042028;28;19909;-74
2022/10/08 13:39:04;;;;;;;;;;;21.80;52.50;;;;;;5016266;28;19920;-74
2022/10/08 13:41:29;;;;;;;;;;;21.80;52.60;;;;;;5033367;28;19959;-74
2022/10/08 13:43:55;;;;;;;;;;;21.80;52.50;;;;;;5033617;28;19924;-74
2022/10/08 13:46:20;;;;;;;;;;;21.80;52.50;;;;;;5049347;28;19909;-74
2022/10/08 13:48:46;;;;;;;;;;;21.80;52.30;;;;;;5051831;28;19917;-74
2022/10/08 13:51:11;;;;;;;;;;;21.80;52.20;;;;;;5051585;28;19913;-74
2022/10/08 13:53:39;;;;;;;;;;;21.80;52.20;;;;;;5033763;28;19916;-74
2022/10/08 13:56:05;;;;;;;;;;;21.80;52.30;;;;;;5017764;28;19909;-74
2022/10/08 13:58:31;;;;;;;;;;;21.80;52.30;;;;;;5033473;28;19916;-74
2022/10/08 14:00:57;;;;;;;;;;;21.80;52.20;;;;;;5054722;28;19917;-74
2022/10/08 14:03:22;;;;;;;;;;;21.80;52.20;;;;;;5054726;28;19917;-74
2022/10/08 14:05:48;;;;;;;;;;;21.80;52.10;;;;;;5055253;28;19921;-74
2022/10/08 14:08:17;;;;;;;;;;;21.80;52.00;;;;;;5037003;28;19956;-73
2022/10/08 14:10:43;;;;;;;;;;;21.90;52.10;;;;;;5037689;28;19988;-74
2022/10/08 14:13:12;;;;;;;;;;;21.90;52.10;;;;;;5054981;28;19959;-74
2022/10/08 14:15:37;;;;;;;;;;;21.90;52.10;;;;;;5055442;28;19935;-74
2022/10/08 14:18:03;;;;;;;;;;;21.90;52.20;;;;;;5035372;28;19916;-74
2022/10/08 14:20:28;;;;;;;;;;;21.90;52.40;;;;;;5055114;28;19909;-74
2022/10/08 14:22:54;;;;;;;;;;;21.90;52.40;;;;;;5037187;28;19956;-74
2022/10/08 14:25:20;;;;;;;;;;;21.90;52.30;;;;;;5052877;28;19912;-74